createdAt,value
2023-03-11T00:00:01.122Z,986.73
2023-03-11T00:01:01.127Z,986.69
2023-03-11T00:02:01.268Z,986.75
2023-03-11T00:03:01.951Z,986.77
2023-03-11T00:04:01.968Z,986.72
2023-03-11T00:05:01.228Z,986.8
2023-03-11T00:06:01.160Z,986.78
2023-03-11T00:07:01.106Z,986.74
2023-03-11T00:08:01.080Z,986.76
2023-03-11T00:09:01.093Z,986.82
2023-03-11T00:10:01.131Z,986.77
2023-03-11T00:11:01.219Z,986.74
2023-03-11T00:12:01.847Z,986.95
2023-03-11T00:13:01.176Z,986.76
2023-03-11T00:14:01.435Z,986.79
2023-03-11T00:15:01.132Z,986.81
2023-03-11T00:16:01.076Z,986.86
2023-03-11T00:17:00.814Z,986.89
2023-03-11T00:18:00.545Z,986.84
2023-03-11T00:19:00.229Z,986.87
2023-03-11T00:19:59.921Z,986.89
2023-03-11T00:20:59.721Z,986.95
2023-03-11T00:22:01.351Z,986.91
2023-03-11T00:23:01.390Z,986.89
2023-03-11T00:24:02.093Z,986.97
2023-03-11T00:25:01.283Z,986.94
2023-03-11T00:26:01.061Z,986.92
2023-03-11T00:27:01.066Z,986.96
2023-03-11T00:28:01.069Z,986.95
2023-03-11T00:29:01.118Z,986.97
2023-03-11T00:30:01.120Z,986.97
2023-03-11T00:31:01.327Z,987.05
2023-03-11T00:32:01.487Z,987.06
2023-03-11T00:33:02.196Z,987.03
2023-03-11T00:34:01.271Z,987.12
2023-03-11T00:35:01.073Z,987.22
2023-03-11T00:36:01.257Z,987.24
2023-03-11T00:37:01.164Z,987.24
2023-03-11T00:38:01.192Z,987.22
2023-03-11T00:39:01.948Z,987.29
2023-03-11T00:40:01.888Z,987.29
2023-03-11T00:41:01.461Z,987.26
2023-03-11T00:42:03.974Z,987.31
2023-03-11T00:43:01.110Z,987.27
2023-03-11T00:44:01.108Z,987.3
2023-03-11T00:45:01.831Z,987.24
2023-03-11T00:46:02.097Z,987.41
2023-03-11T00:47:00.626Z,987.4
2023-03-11T00:48:00.526Z,987.4
2023-03-11T00:49:00.193Z,987.35
2023-03-11T00:49:59.895Z,987.35
2023-03-11T00:50:59.495Z,987.42
2023-03-11T00:52:02.715Z,987.43
2023-03-11T00:53:01.171Z,987.4
2023-03-11T00:54:01.176Z,987.42
2023-03-11T00:55:01.089Z,987.44
2023-03-11T00:56:01.054Z,987.48
2023-03-11T00:57:01.104Z,987.5
2023-03-11T00:58:01.102Z,987.52
2023-03-11T00:59:01.088Z,987.49
2023-03-11T01:00:01.104Z,987.51
2023-03-11T01:01:01.806Z,987.53
2023-03-11T01:02:01.173Z,987.56
2023-03-11T01:03:01.129Z,987.54
2023-03-11T01:04:01.122Z,987.55
2023-03-11T01:05:01.054Z,987.54
2023-03-11T01:06:05.137Z,987.54
2023-03-11T01:07:01.946Z,987.56
2023-03-11T01:08:01.522Z,987.58
2023-03-11T01:09:01.267Z,987.52
2023-03-11T01:10:01.174Z,987.6
2023-03-11T01:11:03.423Z,987.61
2023-03-11T01:12:01.065Z,987.65
2023-03-11T01:13:01.110Z,987.69
2023-03-11T01:14:01.094Z,987.66
2023-03-11T01:15:01.124Z,987.69
2023-03-11T01:16:11.749Z,987.69
2023-03-11T01:17:01.529Z,987.78
2023-03-11T01:18:01.108Z,987.74
2023-03-11T01:19:01.072Z,987.72
2023-03-11T01:20:01.127Z,987.73
2023-03-11T01:21:13.707Z,987.83
2023-03-11T01:22:02.564Z,987.7
2023-03-11T01:23:01.338Z,987.68
2023-03-11T01:24:02.514Z,987.77
2023-03-11T01:25:01.152Z,987.75
2023-03-11T01:26:16.624Z,987.75
2023-03-11T01:27:01.277Z,987.81
2023-03-11T01:28:02.154Z,987.81
2023-03-11T01:29:03.010Z,987.78
2023-03-11T01:30:01.075Z,987.77
2023-03-11T01:31:01.726Z,987.82
2023-03-11T01:32:01.950Z,987.85
2023-03-11T01:33:01.919Z,987.85
2023-03-11T01:34:01.274Z,987.86
2023-03-11T01:35:01.499Z,987.83
2023-03-11T01:36:01.285Z,987.9
2023-03-11T01:37:01.118Z,987.84
2023-03-11T01:38:01.131Z,987.89
2023-03-11T01:39:01.135Z,987.91
2023-03-11T01:40:01.166Z,987.9
2023-03-11T01:41:01.160Z,987.91
2023-03-11T01:42:01.266Z,987.88
2023-03-11T01:43:01.445Z,987.95
2023-03-11T01:44:00.949Z,987.9
2023-03-11T01:45:01.086Z,988.01
2023-03-11T01:46:00.703Z,988.04
2023-03-11T01:47:00.335Z,987.97
2023-03-11T01:48:00.049Z,987.98
2023-03-11T01:48:59.746Z,988
2023-03-11T01:50:01.859Z,988.06
2023-03-11T01:51:01.790Z,987.99
2023-03-11T01:52:01.227Z,988.04
2023-03-11T01:53:01.233Z,988.07
2023-03-11T01:54:01.246Z,988.14
2023-03-11T01:55:01.960Z,988.15
2023-03-11T01:56:01.031Z,988.18
2023-03-11T01:57:00.717Z,988.23
2023-03-11T01:58:00.444Z,988.31
2023-03-11T01:59:00.151Z,988.39
2023-03-11T01:59:59.830Z,988.46
2023-03-11T02:01:01.724Z,988.38
2023-03-11T02:02:02.269Z,988.42
2023-03-11T02:03:01.271Z,988.44
2023-03-11T02:04:02.297Z,988.54
2023-03-11T02:05:01.964Z,988.57
2023-03-11T02:06:01.315Z,988.58
2023-03-11T02:07:02.240Z,988.59
2023-03-11T02:08:01.935Z,988.73
2023-03-11T02:09:00.903Z,988.72
2023-03-11T02:10:01.139Z,988.84
2023-03-11T02:11:01.136Z,988.85
2023-03-11T02:12:01.546Z,988.82
2023-03-11T02:13:01.192Z,988.96
2023-03-11T02:14:01.169Z,988.88
2023-03-11T02:15:01.188Z,989.02
2023-03-11T02:16:01.083Z,988.98
2023-03-11T02:17:01.077Z,989.06
2023-03-11T02:18:00.673Z,989.09
2023-03-11T02:19:00.368Z,989.05
2023-03-11T02:20:00.317Z,989.13
2023-03-11T02:21:00.084Z,989.24
2023-03-11T02:21:59.768Z,989.27
2023-03-11T02:23:02.623Z,989.32
2023-03-11T02:24:01.513Z,989.33
2023-03-11T02:25:01.235Z,989.38
2023-03-11T02:26:01.358Z,989.46
2023-03-11T02:27:01.137Z,989.5
2023-03-11T02:28:01.080Z,989.54
2023-03-11T02:29:01.073Z,989.61
2023-03-11T02:30:00.862Z,989.6
2023-03-11T02:31:00.645Z,989.67
2023-03-11T02:32:00.613Z,989.71
2023-03-11T02:33:00.348Z,989.72
2023-03-11T02:34:00.068Z,989.76
2023-03-11T02:34:59.873Z,989.76
2023-03-11T02:35:59.568Z,989.85
2023-03-11T02:37:01.218Z,989.86
2023-03-11T02:38:01.960Z,989.95
2023-03-11T02:39:01.128Z,989.94
2023-03-11T02:40:01.141Z,989.95
2023-03-11T02:41:01.137Z,989.98
2023-03-11T02:42:01.133Z,990.02
2023-03-11T02:43:01.133Z,990.1
2023-03-11T02:44:01.829Z,990.12
2023-03-11T02:45:01.154Z,990.22
2023-03-11T02:46:01.148Z,990.14
2023-03-11T02:47:01.483Z,990.26
2023-03-11T02:48:01.275Z,990.21
2023-03-11T02:49:01.854Z,990.31
2023-03-11T02:50:01.128Z,990.3
2023-03-11T02:51:01.082Z,990.34
2023-03-11T02:52:03.740Z,990.34
2023-03-11T02:53:01.064Z,990.4
2023-03-11T02:54:01.101Z,990.44
2023-03-11T02:55:01.505Z,990.48
2023-03-11T02:56:01.221Z,990.49
2023-03-11T02:57:07.991Z,990.5
2023-03-11T02:58:01.132Z,990.58
2023-03-11T02:59:01.151Z,990.65
2023-03-11T03:00:01.161Z,990.65
2023-03-11T03:01:01.569Z,990.64
2023-03-11T03:02:10.488Z,990.72
2023-03-11T03:03:01.187Z,990.76
2023-03-11T03:04:01.217Z,990.79
2023-03-11T03:05:01.885Z,990.82
2023-03-11T03:06:01.191Z,990.9
2023-03-11T03:07:12.812Z,990.93
2023-03-11T03:08:01.090Z,990.96
2023-03-11T03:09:03.787Z,990.96
2023-03-11T03:10:01.998Z,991.03
2023-03-11T03:11:01.855Z,991.04
2023-03-11T03:12:15.410Z,991.06
2023-03-11T03:13:02.535Z,991.07
2023-03-11T03:14:01.322Z,991.09
2023-03-11T03:15:02.220Z,991.18
2023-03-11T03:16:01.143Z,991.27
2023-03-11T03:17:01.333Z,991.22
2023-03-11T03:18:01.063Z,991.37
2023-03-11T03:19:01.062Z,991.33
2023-03-11T03:20:01.121Z,991.38
2023-03-11T03:21:01.065Z,991.46
2023-03-11T03:22:01.068Z,991.45
2023-03-11T03:23:01.460Z,991.54
2023-03-11T03:24:01.191Z,991.56
2023-03-11T03:25:02.444Z,991.56
2023-03-11T03:26:01.177Z,991.58
2023-03-11T03:27:01.221Z,991.64
2023-03-11T03:28:01.197Z,991.65
2023-03-11T03:29:01.108Z,991.72
2023-03-11T03:30:01.126Z,991.77
2023-03-11T03:31:01.142Z,991.79
2023-03-11T03:32:01.282Z,991.83
2023-03-11T03:33:01.541Z,991.87
2023-03-11T03:34:01.537Z,991.87
2023-03-11T03:35:02.166Z,991.87
2023-03-11T03:36:01.326Z,991.91
2023-03-11T03:37:03.985Z,991.95
2023-03-11T03:38:01.062Z,992.03
2023-03-11T03:39:01.085Z,992.03
2023-03-11T03:40:01.085Z,992.03
2023-03-11T03:41:01.117Z,992.11
2023-03-11T03:42:01.313Z,992.15
2023-03-11T03:43:01.132Z,992.15
2023-03-11T03:44:01.065Z,992.25
2023-03-11T03:45:01.089Z,992.22
2023-03-11T03:46:01.233Z,992.25
2023-03-11T03:47:01.126Z,992.3
2023-03-11T03:48:01.133Z,992.38
2023-03-11T03:49:01.948Z,992.36
2023-03-11T03:50:01.426Z,992.39
2023-03-11T03:51:01.541Z,992.48
2023-03-11T03:52:01.277Z,992.45
2023-03-11T03:53:01.971Z,992.52
2023-03-11T03:54:01.079Z,992.63
2023-03-11T03:55:01.110Z,992.65
2023-03-11T03:56:06.808Z,992.75
2023-03-11T03:57:01.503Z,992.79
2023-03-11T03:58:00.785Z,992.79
2023-03-11T03:59:01.488Z,992.86
2023-03-11T04:00:01.488Z,992.87
2023-03-11T04:01:01.267Z,992.89
2023-03-11T04:02:01.195Z,992.95
2023-03-11T04:03:01.166Z,992.99
2023-03-11T04:04:01.138Z,993.02
2023-03-11T04:05:04.569Z,993.09
2023-03-11T04:06:01.160Z,993.11
2023-03-11T04:07:01.171Z,993.18
2023-03-11T04:08:01.189Z,993.17
2023-03-11T04:09:01.431Z,993.14
2023-03-11T04:10:02.184Z,993.24
2023-03-11T04:11:01.133Z,993.3
2023-03-11T04:12:01.095Z,993.27
2023-03-11T04:13:01.121Z,993.32
2023-03-11T04:14:01.099Z,993.37
2023-03-11T04:15:01.135Z,993.39
2023-03-11T04:16:01.087Z,993.43
2023-03-11T04:17:01.214Z,993.47
2023-03-11T04:18:01.499Z,993.56
2023-03-11T04:19:01.240Z,993.58
2023-03-11T04:20:02.946Z,993.56
2023-03-11T04:21:01.441Z,993.75
2023-03-11T04:22:01.146Z,993.75
2023-03-11T04:23:01.135Z,993.74
2023-03-11T04:24:01.265Z,993.76
2023-03-11T04:25:01.218Z,993.81
2023-03-11T04:26:01.904Z,993.94
2023-03-11T04:27:01.210Z,993.89
2023-03-11T04:28:01.089Z,993.89
2023-03-11T04:29:01.197Z,994.02
2023-03-11T04:30:01.132Z,994.09
2023-03-11T04:31:02.262Z,994.15
2023-03-11T04:32:01.297Z,994.17
2023-03-11T04:33:00.956Z,994.28
2023-03-11T04:34:01.513Z,994.33
2023-03-11T04:35:01.150Z,994.39
2023-03-11T04:36:01.225Z,994.29
2023-03-11T04:37:01.146Z,994.4
2023-03-11T04:38:03.715Z,994.44
2023-03-11T04:39:01.163Z,994.41
2023-03-11T04:40:01.393Z,994.46
2023-03-11T04:41:01.257Z,994.51
2023-03-11T04:42:03.610Z,994.48
2023-03-11T04:43:05.888Z,994.5
2023-03-11T04:44:01.505Z,994.52
2023-03-11T04:45:05.124Z,994.59
2023-03-11T04:46:01.844Z,994.65
2023-03-11T04:47:01.146Z,994.68
2023-03-11T04:48:09.504Z,994.77
2023-03-11T04:49:01.114Z,994.88
2023-03-11T04:50:01.135Z,994.78
2023-03-11T04:51:01.154Z,994.88
2023-03-11T04:52:01.143Z,994.9
2023-03-11T04:53:11.621Z,994.92
2023-03-11T04:54:01.146Z,994.94
2023-03-11T04:55:06.122Z,995.01
2023-03-11T04:56:01.174Z,995
2023-03-11T04:57:01.152Z,995.08
2023-03-11T04:58:14.112Z,995.08
2023-03-11T04:59:01.195Z,995.11
2023-03-11T05:00:01.116Z,995.15
2023-03-11T05:01:01.207Z,995.17
2023-03-11T05:02:01.093Z,995.24
2023-03-11T05:03:16.283Z,995.26
2023-03-11T05:04:01.668Z,995.3
2023-03-11T05:05:04.256Z,995.32
2023-03-11T05:06:01.956Z,995.37
2023-03-11T05:07:01.431Z,995.38
2023-03-11T05:08:01.142Z,995.39
2023-03-11T05:09:01.186Z,995.48
2023-03-11T05:10:01.137Z,995.42
2023-03-11T05:11:01.165Z,995.51
2023-03-11T05:12:01.207Z,995.51
2023-03-11T05:13:01.188Z,995.51
2023-03-11T05:14:01.202Z,995.56
2023-03-11T05:15:01.088Z,995.58
2023-03-11T05:16:01.139Z,995.61
2023-03-11T05:17:01.079Z,995.65
2023-03-11T05:18:01.345Z,995.76
2023-03-11T05:19:01.175Z,995.66
2023-03-11T05:20:01.537Z,995.74
2023-03-11T05:21:01.195Z,995.72
2023-03-11T05:22:01.225Z,995.79
2023-03-11T05:23:01.131Z,995.75
2023-03-11T05:24:01.127Z,995.8
2023-03-11T05:25:01.126Z,995.8
2023-03-11T05:26:01.154Z,995.92
2023-03-11T05:27:01.527Z,995.92
2023-03-11T05:28:01.141Z,995.95
2023-03-11T05:29:01.286Z,996.03
2023-03-11T05:30:01.355Z,996.06
2023-03-11T05:31:01.131Z,996.14
2023-03-11T05:32:01.066Z,996.08
2023-03-11T05:33:01.078Z,996.16
2023-03-11T05:34:01.098Z,996.13
2023-03-11T05:35:01.087Z,996.18
2023-03-11T05:36:01.164Z,996.19
2023-03-11T05:37:03.091Z,996.26
2023-03-11T05:38:01.104Z,996.24
2023-03-11T05:39:01.830Z,996.31
2023-03-11T05:40:01.054Z,996.38
2023-03-11T05:41:01.383Z,996.34
2023-03-11T05:42:01.451Z,996.33
2023-03-11T05:43:02.577Z,996.47
2023-03-11T05:44:01.153Z,996.51
2023-03-11T05:45:01.160Z,996.5
2023-03-11T05:46:01.071Z,996.52
2023-03-11T05:47:01.167Z,996.61
2023-03-11T05:48:01.086Z,996.62
2023-03-11T05:49:01.477Z,996.7
2023-03-11T05:50:01.086Z,996.72
2023-03-11T05:51:00.802Z,996.72
2023-03-11T05:52:01.099Z,996.8
2023-03-11T05:53:01.228Z,996.77
2023-03-11T05:54:02.031Z,996.81
2023-03-11T05:55:01.956Z,996.8
2023-03-11T05:56:01.343Z,996.82
2023-03-11T05:57:01.396Z,996.95
2023-03-11T05:58:01.384Z,996.9
2023-03-11T05:59:01.139Z,996.95
2023-03-11T06:00:01.725Z,997.01
2023-03-11T06:01:02.182Z,997.01
2023-03-11T06:02:01.834Z,996.98
2023-03-11T06:03:01.203Z,997.14
2023-03-11T06:04:01.214Z,997.21
2023-03-11T06:05:02.134Z,997.18
2023-03-11T06:06:01.199Z,997.26
2023-03-11T06:07:01.233Z,997.3
2023-03-11T06:08:01.274Z,997.27
2023-03-11T06:09:01.173Z,997.42
2023-03-11T06:10:01.130Z,997.37
2023-03-11T06:11:00.940Z,997.33
2023-03-11T06:12:01.135Z,997.42
2023-03-11T06:13:01.132Z,997.44
2023-03-11T06:14:01.129Z,997.46
2023-03-11T06:15:01.287Z,997.46
2023-03-11T06:16:01.400Z,997.55
2023-03-11T06:17:01.142Z,997.53
2023-03-11T06:18:01.136Z,997.61
2023-03-11T06:19:01.199Z,997.64
2023-03-11T06:20:01.088Z,997.67
2023-03-11T06:21:01.892Z,997.64
2023-03-11T06:22:01.756Z,997.67
2023-03-11T06:23:01.082Z,997.71
2023-03-11T06:24:01.101Z,997.69
2023-03-11T06:25:01.359Z,997.75
2023-03-11T06:26:01.378Z,997.89
2023-03-11T06:27:01.496Z,997.85
2023-03-11T06:28:02.143Z,997.84
2023-03-11T06:29:02.726Z,997.9
2023-03-11T06:30:02.166Z,997.9
2023-03-11T06:31:02.957Z,997.93
2023-03-11T06:32:01.335Z,997.97
2023-03-11T06:33:01.148Z,998.09
2023-03-11T06:34:04.771Z,998.12
2023-03-11T06:35:01.157Z,998.16
2023-03-11T06:36:01.492Z,998.18
2023-03-11T06:37:01.469Z,998.2
2023-03-11T06:38:01.079Z,998.28
2023-03-11T06:39:08.428Z,998.23
2023-03-11T06:40:01.116Z,998.26
2023-03-11T06:41:01.130Z,998.28
2023-03-11T06:42:01.105Z,998.32
2023-03-11T06:43:01.124Z,998.37
2023-03-11T06:44:10.637Z,998.45
2023-03-11T06:45:01.235Z,998.41
2023-03-11T06:46:08.260Z,998.51
2023-03-11T06:47:01.144Z,998.47
2023-03-11T06:48:01.213Z,998.61
2023-03-11T06:49:14.143Z,998.6
2023-03-11T06:50:00.923Z,998.66
2023-03-11T06:51:00.647Z,998.66
2023-03-11T06:52:00.343Z,998.71
2023-03-11T06:53:00.000Z,998.81
2023-03-11T06:53:59.621Z,998.73
2023-03-11T06:55:01.443Z,998.82
2023-03-11T06:56:01.110Z,998.85
2023-03-11T06:57:01.043Z,998.91
2023-03-11T06:58:01.180Z,998.94
2023-03-11T06:59:01.820Z,999.02
2023-03-11T07:00:01.399Z,999.03
2023-03-11T07:01:01.213Z,999.07
2023-03-11T07:02:01.793Z,999.13
2023-03-11T07:03:02.397Z,999.12
2023-03-11T07:04:01.612Z,999.12
2023-03-11T07:05:01.070Z,999.18
2023-03-11T07:06:01.161Z,999.22
2023-03-11T07:07:01.154Z,999.29
2023-03-11T07:08:01.080Z,999.28
2023-03-11T07:09:01.072Z,999.31
2023-03-11T07:10:01.087Z,999.34
2023-03-11T07:11:01.804Z,999.35
2023-03-11T07:12:01.236Z,999.4
2023-03-11T07:13:01.250Z,999.46
2023-03-11T07:14:01.488Z,999.53
2023-03-11T07:15:02.102Z,999.51
2023-03-11T07:16:02.612Z,999.56
2023-03-11T07:17:01.322Z,999.6
2023-03-11T07:18:02.677Z,999.62
2023-03-11T07:19:01.327Z,999.68
2023-03-11T07:20:01.960Z,999.65
2023-03-11T07:21:01.153Z,999.69
2023-03-11T07:22:01.249Z,999.67
2023-03-11T07:23:01.551Z,999.77
2023-03-11T07:24:04.132Z,999.74
2023-03-11T07:25:01.795Z,999.76
2023-03-11T07:26:04.113Z,999.78
2023-03-11T07:27:01.243Z,999.81
2023-03-11T07:28:01.097Z,999.81
2023-03-11T07:29:01.108Z,999.86
2023-03-11T07:30:03.220Z,999.87
2023-03-11T07:31:01.705Z,999.89
2023-03-11T07:32:01.178Z,999.92
2023-03-11T07:33:01.933Z,999.91
2023-03-11T07:34:01.152Z,999.96
2023-03-11T07:35:00.838Z,1000.03
2023-03-11T07:36:00.563Z,1000.07
2023-03-11T07:37:00.226Z,1000.07
2023-03-11T07:37:59.923Z,1000.09
2023-03-11T07:38:59.720Z,1000.18
2023-03-11T07:40:01.472Z,1000.16
2023-03-11T07:41:01.154Z,1000.22
2023-03-11T07:42:01.074Z,1000.3
2023-03-11T07:43:01.119Z,1000.26
2023-03-11T07:44:01.096Z,1000.24
2023-03-11T07:45:01.105Z,1000.27
2023-03-11T07:46:01.548Z,1000.39
2023-03-11T07:47:01.134Z,1000.36
2023-03-11T07:48:01.129Z,1000.35
2023-03-11T07:49:01.117Z,1000.37
2023-03-11T07:50:00.837Z,1000.47
2023-03-11T07:51:01.148Z,1000.47
2023-03-11T07:52:01.145Z,1000.47
2023-03-11T07:53:01.393Z,1000.51
2023-03-11T07:54:02.591Z,1000.53
2023-03-11T07:55:02.024Z,1000.55
2023-03-11T07:56:01.204Z,1000.53
2023-03-11T07:57:01.065Z,1000.57
2023-03-11T07:58:01.088Z,1000.72
2023-03-11T07:59:01.099Z,1000.72
2023-03-11T08:00:01.511Z,1000.66
2023-03-11T08:01:01.181Z,1000.68
2023-03-11T08:02:01.193Z,1000.72
2023-03-11T08:03:01.145Z,1000.74
2023-03-11T08:04:01.179Z,1000.75
2023-03-11T08:05:04.540Z,1000.81
2023-03-11T08:06:01.172Z,1000.85
2023-03-11T08:07:01.129Z,1000.87
2023-03-11T08:08:01.966Z,1000.95
2023-03-11T08:09:01.170Z,1000.93
2023-03-11T08:10:01.626Z,1000.95
2023-03-11T08:11:02.265Z,1000.92
2023-03-11T08:12:02.989Z,1000.93
2023-03-11T08:13:02.025Z,1001.06
2023-03-11T08:14:01.137Z,1001.04
2023-03-11T08:15:04.508Z,1001.07
2023-03-11T08:16:01.157Z,1001.09
2023-03-11T08:17:01.099Z,1001.09
2023-03-11T08:18:01.261Z,1001.09
2023-03-11T08:19:01.512Z,1001.18
2023-03-11T08:20:07.631Z,1001.19
2023-03-11T08:21:01.132Z,1001.18
2023-03-11T08:22:01.922Z,1001.21
2023-03-11T08:23:02.503Z,1001.23
2023-03-11T08:24:01.155Z,1001.28
2023-03-11T08:25:10.026Z,1001.37
2023-03-11T08:26:01.169Z,1001.34
2023-03-11T08:27:01.626Z,1001.39
2023-03-11T08:28:02.003Z,1001.42
2023-03-11T08:29:01.627Z,1001.48
2023-03-11T08:30:11.907Z,1001.45
2023-03-11T08:31:01.493Z,1001.45
2023-03-11T08:32:01.142Z,1001.52
2023-03-11T08:33:01.794Z,1001.41
2023-03-11T08:34:01.098Z,1001.51
2023-03-11T08:35:15.697Z,1001.57
2023-03-11T08:36:01.382Z,1001.53
2023-03-11T08:37:01.053Z,1001.55
2023-03-11T08:38:01.120Z,1001.62
2023-03-11T08:39:01.259Z,1001.62
2023-03-11T08:40:01.122Z,1001.67
2023-03-11T08:41:01.153Z,1001.66
2023-03-11T08:42:01.470Z,1001.64
2023-03-11T08:43:01.482Z,1001.66
2023-03-11T08:44:01.492Z,1001.7
2023-03-11T08:45:01.510Z,1001.73
2023-03-11T08:46:04.080Z,1001.77
2023-03-11T08:47:01.084Z,1001.77
2023-03-11T08:48:01.078Z,1001.84
2023-03-11T08:49:01.662Z,1001.77
2023-03-11T08:50:01.485Z,1001.83
2023-03-11T08:51:01.129Z,1001.9
2023-03-11T08:52:01.123Z,1001.82
2023-03-11T08:53:01.111Z,1001.93
2023-03-11T08:54:01.080Z,1001.94
2023-03-11T08:55:01.056Z,1001.98
2023-03-11T08:56:01.136Z,1002
2023-03-11T08:57:01.151Z,1002.04
2023-03-11T08:58:01.357Z,1001.99
2023-03-11T08:59:01.259Z,1002.04
2023-03-11T09:00:01.388Z,1002.12
2023-03-11T09:01:01.135Z,1002.09
2023-03-11T09:02:01.800Z,1002.15
2023-03-11T09:03:02.077Z,1002.18
2023-03-11T09:04:01.629Z,1002.22
2023-03-11T09:05:01.088Z,1002.29
2023-03-11T09:06:01.568Z,1002.23
2023-03-11T09:07:01.205Z,1002.3
2023-03-11T09:08:01.121Z,1002.25
2023-03-11T09:09:01.108Z,1002.3
2023-03-11T09:10:00.809Z,1002.29
2023-03-11T09:11:01.154Z,1002.3
2023-03-11T09:12:01.505Z,1002.42
2023-03-11T09:13:01.175Z,1002.34
2023-03-11T09:14:01.149Z,1002.42
2023-03-11T09:15:01.141Z,1002.45
2023-03-11T09:16:01.237Z,1002.38
2023-03-11T09:17:01.105Z,1002.42
2023-03-11T09:18:01.136Z,1002.49
2023-03-11T09:19:01.127Z,1002.51
2023-03-11T09:20:01.089Z,1002.53
2023-03-11T09:21:01.508Z,1002.57
2023-03-11T09:22:01.109Z,1002.55
2023-03-11T09:23:01.144Z,1002.68
2023-03-11T09:24:01.245Z,1002.65
2023-03-11T09:25:01.104Z,1002.64
2023-03-11T09:26:01.131Z,1002.74
2023-03-11T09:27:01.128Z,1002.69
2023-03-11T09:28:01.128Z,1002.73
2023-03-11T09:29:01.138Z,1002.75
2023-03-11T09:30:00.815Z,1002.9
2023-03-11T09:31:01.211Z,1002.92
2023-03-11T09:32:01.146Z,1002.88
2023-03-11T09:33:01.157Z,1002.9
2023-03-11T09:34:01.068Z,1002.95
2023-03-11T09:35:01.109Z,1002.93
2023-03-11T09:36:01.116Z,1003
2023-03-11T09:37:01.916Z,1002.95
2023-03-11T09:38:01.093Z,1003.01
2023-03-11T09:39:01.134Z,1003.04
2023-03-11T09:40:01.111Z,1003.06
2023-03-11T09:41:01.121Z,1003.05
2023-03-11T09:42:01.788Z,1003.09
2023-03-11T09:43:01.117Z,1003.24
2023-03-11T09:44:01.137Z,1003.11
2023-03-11T09:45:01.160Z,1003.14
2023-03-11T09:46:00.760Z,1003.18
2023-03-11T09:47:01.226Z,1003.28
2023-03-11T09:48:03.068Z,1003.22
2023-03-11T09:49:01.967Z,1003.25
2023-03-11T09:50:00.651Z,1003.19
2023-03-11T09:51:00.353Z,1003.26
2023-03-11T09:51:59.923Z,1003.29
2023-03-11T09:52:59.528Z,1003.37
2023-03-11T09:54:01.290Z,1003.29
2023-03-11T09:55:02.077Z,1003.34
2023-03-11T09:56:07.398Z,1003.35
2023-03-11T09:57:01.100Z,1003.36
2023-03-11T09:58:01.061Z,1003.36
2023-03-11T09:59:01.136Z,1003.4
2023-03-11T10:00:01.125Z,1003.35
2023-03-11T10:01:05.180Z,1003.35
2023-03-11T10:02:04.336Z,1003.4
2023-03-11T10:03:01.270Z,1003.38
2023-03-11T10:04:02.178Z,1003.44
2023-03-11T10:05:01.264Z,1003.51
2023-03-11T10:06:13.240Z,1003.49
2023-03-11T10:07:01.064Z,1003.5
2023-03-11T10:08:01.085Z,1003.49
2023-03-11T10:09:01.124Z,1003.54
2023-03-11T10:10:01.845Z,1003.61
2023-03-11T10:11:16.044Z,1003.61
2023-03-11T10:12:01.066Z,1003.59
2023-03-11T10:13:01.048Z,1003.57
2023-03-11T10:14:01.121Z,1003.59
2023-03-11T10:15:01.130Z,1003.63
2023-03-11T10:16:01.845Z,1003.65
2023-03-11T10:17:01.454Z,1003.67
2023-03-11T10:18:01.189Z,1003.66
2023-03-11T10:19:01.381Z,1003.73
2023-03-11T10:20:01.560Z,1003.7
2023-03-11T10:21:01.286Z,1003.76
2023-03-11T10:22:01.961Z,1003.82
2023-03-11T10:23:01.095Z,1003.79
2023-03-11T10:24:01.060Z,1003.72
2023-03-11T10:25:01.121Z,1003.74
2023-03-11T10:26:01.084Z,1003.81
2023-03-11T10:27:01.089Z,1003.76
2023-03-11T10:28:01.796Z,1003.84
2023-03-11T10:29:01.238Z,1003.77
2023-03-11T10:30:01.416Z,1003.79
2023-03-11T10:31:01.544Z,1003.87
2023-03-11T10:32:01.179Z,1003.83
2023-03-11T10:33:01.337Z,1003.89
2023-03-11T10:34:02.698Z,1003.89
2023-03-11T10:35:02.568Z,1003.85
2023-03-11T10:36:01.517Z,1003.94
2023-03-11T10:37:01.154Z,1004
2023-03-11T10:38:01.466Z,1003.98
2023-03-11T10:39:01.078Z,1004.03
2023-03-11T10:40:01.062Z,1004.02
2023-03-11T10:41:01.089Z,1004.07
2023-03-11T10:42:01.198Z,1004.02
2023-03-11T10:43:01.096Z,1003.97
2023-03-11T10:44:01.093Z,1003.96
2023-03-11T10:45:01.100Z,1004.11
2023-03-11T10:46:01.164Z,1004.07
2023-03-11T10:47:01.134Z,1004.07
2023-03-11T10:48:01.322Z,1004.11
2023-03-11T10:49:01.132Z,1004.07
2023-03-11T10:50:01.129Z,1003.99
2023-03-11T10:51:01.514Z,1004.09
2023-03-11T10:52:01.071Z,1004.15
2023-03-11T10:53:00.833Z,1004.19
2023-03-11T10:54:00.474Z,1004.12
2023-03-11T10:55:00.162Z,1004.21
2023-03-11T10:55:59.835Z,1004.17
2023-03-11T10:57:02.193Z,1004.18
2023-03-11T10:58:01.279Z,1004.24
2023-03-11T10:59:01.917Z,1004.33
2023-03-11T11:00:02.122Z,1004.13
2023-03-11T11:01:01.317Z,1004.25
2023-03-11T11:02:01.121Z,1004.23
2023-03-11T11:03:01.107Z,1004.19
2023-03-11T11:04:01.219Z,1004.22
2023-03-11T11:05:01.138Z,1004.32
2023-03-11T11:06:01.132Z,1004.27
2023-03-11T11:07:01.534Z,1004.41
2023-03-11T11:08:01.725Z,1004.32
2023-03-11T11:09:01.170Z,1004.38
2023-03-11T11:10:01.253Z,1004.46
2023-03-11T11:11:01.855Z,1004.44
2023-03-11T11:12:01.076Z,1004.39
2023-03-11T11:13:00.862Z,1004.42
2023-03-11T11:14:00.812Z,1004.44
2023-03-11T11:15:00.462Z,1004.42
2023-03-11T11:16:00.169Z,1004.38
2023-03-11T11:16:59.876Z,1004.43
2023-03-11T11:17:59.550Z,1004.43
2023-03-11T11:19:01.127Z,1004.46
2023-03-11T11:20:01.115Z,1004.49
2023-03-11T11:21:01.087Z,1004.47
2023-03-11T11:22:01.172Z,1004.54
2023-03-11T11:23:01.203Z,1004.51
2023-03-11T11:24:01.154Z,1004.55
2023-03-11T11:25:01.413Z,1004.57
2023-03-11T11:26:01.381Z,1004.48
2023-03-11T11:27:01.071Z,1004.6
2023-03-11T11:28:01.078Z,1004.57
2023-03-11T11:29:01.078Z,1004.58
2023-03-11T11:30:01.212Z,1004.55
2023-03-11T11:31:01.144Z,1004.57
2023-03-11T11:32:01.100Z,1004.63
2023-03-11T11:33:00.782Z,1004.62
2023-03-11T11:34:00.500Z,1004.57
2023-03-11T11:35:00.129Z,1004.61
2023-03-11T11:35:59.775Z,1004.64
2023-03-11T11:37:02.656Z,1004.63
2023-03-11T11:38:01.200Z,1004.66
2023-03-11T11:39:01.184Z,1004.64
2023-03-11T11:40:01.136Z,1004.61
2023-03-11T11:41:01.147Z,1004.59
2023-03-11T11:42:05.834Z,1004.6
2023-03-11T11:43:02.068Z,1004.6
2023-03-11T11:44:01.620Z,1004.65
2023-03-11T11:45:01.067Z,1004.65
2023-03-11T11:46:01.135Z,1004.6
2023-03-11T11:47:08.507Z,1004.66
2023-03-11T11:48:01.282Z,1004.63
2023-03-11T11:49:02.146Z,1004.71
2023-03-11T11:50:04.617Z,1004.7
2023-03-11T11:51:01.898Z,1004.7
2023-03-11T11:52:10.588Z,1004.72
2023-03-11T11:53:00.889Z,1004.69
2023-03-11T11:54:01.538Z,1004.74
2023-03-11T11:55:01.133Z,1004.74
2023-03-11T11:56:01.148Z,1004.74
2023-03-11T11:57:13.624Z,1004.75
2023-03-11T11:58:01.042Z,1004.77
2023-03-11T11:59:00.735Z,1004.73
2023-03-11T12:00:00.550Z,1004.82
2023-03-11T12:01:00.700Z,1004.79
2023-03-11T12:02:16.346Z,1004.83
2023-03-11T12:03:01.247Z,1004.73
2023-03-11T12:04:02.362Z,1004.83
2023-03-11T12:05:02.127Z,1004.81
2023-03-11T12:06:02.954Z,1004.8
2023-03-11T12:07:01.086Z,1004.88
2023-03-11T12:08:01.121Z,1004.86
2023-03-11T12:09:01.216Z,1004.88
2023-03-11T12:10:12.926Z,1004.86
2023-03-11T12:11:01.049Z,1004.86
2023-03-11T12:12:01.565Z,1004.86
2023-03-11T12:13:01.220Z,1004.85
2023-03-11T12:14:01.985Z,1004.91
2023-03-11T12:15:02.516Z,1004.91
2023-03-11T12:16:01.164Z,1004.86
2023-03-11T12:17:03.881Z,1004.89
2023-03-11T12:18:01.069Z,1005.01
2023-03-11T12:19:01.107Z,1004.96
2023-03-11T12:20:01.089Z,1005.03
2023-03-11T12:21:01.094Z,1005